createdAt,value
2023-01-31T00:00:10.471Z,8.43
2023-01-31T00:02:12.117Z,7.10
2023-01-31T00:04:13.813Z,7.82
2023-01-31T00:06:20.789Z,8.50
2023-01-31T00:08:22.513Z,7.93
2023-01-31T00:10:24.279Z,7.95
2023-01-31T00:12:25.956Z,6.03
2023-01-31T00:14:27.692Z,7.80
2023-01-31T00:16:29.451Z,8.07
2023-01-31T00:18:31.167Z,10.73
2023-01-31T00:20:32.911Z,7.65
2023-01-31T00:22:34.882Z,8.65
2023-01-31T00:24:37.086Z,10.02
2023-01-31T00:26:39.808Z,7.35
2023-01-31T00:28:46.033Z,8.35
2023-01-31T00:30:47.641Z,7.60
2023-01-31T00:32:49.315Z,12.35
2023-01-31T00:34:51.014Z,11.65
2023-01-31T00:36:52.621Z,7.97
2023-01-31T00:38:56.607Z,7.45
2023-01-31T00:40:58.344Z,8.07
2023-01-31T00:42:59.984Z,12.52
2023-01-31T00:45:01.774Z,9.02
2023-01-31T00:47:03.501Z,7.40
2023-01-31T00:49:05.493Z,8.60
2023-01-31T00:51:07.489Z,11.02
2023-01-31T00:53:09.613Z,10.23
2023-01-31T00:55:11.339Z,10.27
2023-01-31T00:57:13.056Z,11.93
2023-01-31T00:59:15.053Z,11.27
2023-01-31T01:01:21.325Z,9.40
2023-01-31T01:03:22.969Z,13.40
2023-01-31T01:05:24.700Z,13.27
2023-01-31T01:07:26.404Z,8.82
2023-01-31T01:09:28.077Z,8.80
2023-01-31T01:11:32.195Z,10.15
2023-01-31T01:13:34.666Z,7.93
2023-01-31T01:15:39.881Z,7.45
2023-01-31T01:17:41.554Z,8.50
2023-01-31T01:19:43.364Z,12.80
2023-01-31T01:21:45.060Z,11.00
2023-01-31T01:23:49.896Z,8.95
2023-01-31T01:25:51.625Z,11.50
2023-01-31T01:27:53.309Z,8.80
2023-01-31T01:29:55.021Z,11.02
2023-01-31T01:31:56.752Z,9.65
2023-01-31T01:34:04.256Z,8.75
2023-01-31T01:36:07.789Z,8.05
2023-01-31T01:38:09.433Z,19.55
2023-01-31T01:40:11.762Z,13.80
2023-01-31T01:42:17.967Z,7.97
2023-01-31T01:44:44.529Z,10.60
2023-01-31T01:46:46.173Z,10.10
2023-01-31T01:48:51.590Z,6.78
2023-01-31T01:50:53.500Z,9.45
2023-01-31T01:52:59.850Z,10.93
2023-01-31T01:55:07.588Z,7.40
2023-01-31T01:57:09.701Z,10.10
2023-01-31T01:59:21.109Z,7.63
2023-01-31T02:01:25.000Z,11.00
2023-01-31T02:03:27.322Z,10.27
2023-01-31T02:05:49.303Z,11.15
2023-01-31T02:07:51.228Z,7.38
2023-01-31T02:10:22.076Z,15.82
2023-01-31T02:12:25.135Z,16.77
2023-01-31T02:14:27.412Z,10.82
2023-01-31T02:16:29.641Z,7.13
2023-01-31T02:18:31.431Z,7.38
2023-01-31T02:20:51.750Z,7.25
2023-01-31T02:22:53.323Z,9.25
2023-01-31T02:25:22.552Z,7.05
2023-01-31T02:27:54.987Z,7.47
2023-01-31T02:30:15.247Z,10.30
2023-01-31T02:32:16.890Z,13.02
2023-01-31T02:34:27.683Z,7.90
2023-01-31T02:36:44.230Z,8.10
2023-01-31T02:39:24.619Z,7.70
2023-01-31T02:41:46.541Z,8.73
2023-01-31T02:44:06.503Z,8.48
2023-01-31T02:46:16.861Z,12.88
2023-01-31T02:48:33.929Z,5.72
2023-01-31T02:50:38.692Z,7.22
2023-01-31T02:52:52.281Z,7.85
2023-01-31T02:55:26.768Z,11.50
2023-01-31T02:57:28.775Z,7.57
2023-01-31T02:59:32.100Z,6.75
2023-01-31T03:01:37.191Z,6.25
2023-01-31T03:03:39.310Z,10.52
2023-01-31T03:05:42.864Z,6.40
2023-01-31T03:07:48.448Z,8.05
2023-01-31T03:10:08.372Z,8.52
2023-01-31T03:12:30.900Z,7.20
2023-01-31T03:14:53.991Z,6.40
2023-01-31T03:17:33.005Z,4.82
2023-01-31T03:19:41.493Z,5.72
2023-01-31T03:21:58.734Z,7.70
2023-01-31T03:24:00.643Z,7.47
2023-01-31T03:26:04.040Z,10.70
2023-01-31T03:28:10.747Z,5.95
2023-01-31T03:30:16.569Z,6.57
2023-01-31T03:32:25.948Z,6.43
2023-01-31T03:34:27.994Z,14.63
2023-01-31T03:36:56.046Z,9.90
2023-01-31T03:39:42.665Z,9.02
2023-01-31T03:41:55.740Z,9.75
2023-01-31T03:44:06.334Z,10.48
2023-01-31T03:46:22.600Z,9.25
2023-01-31T03:48:28.674Z,9.50
2023-01-31T03:50:42.522Z,9.00
2023-01-31T03:52:59.844Z,10.25
2023-01-31T03:55:19.848Z,11.43
2023-01-31T03:57:32.572Z,17.23
2023-01-31T03:59:37.977Z,12.57
2023-01-31T04:01:43.021Z,12.82
2023-01-31T04:03:49.025Z,10.70
2023-01-31T04:05:51.126Z,10.55
2023-01-31T04:07:52.771Z,9.90
2023-01-31T04:09:54.499Z,9.35
2023-01-31T04:11:59.925Z,10.85
2023-01-31T04:14:01.705Z,15.27
2023-01-31T04:16:04.086Z,12.65
2023-01-31T04:18:05.999Z,10.63
2023-01-31T04:20:10.785Z,18.48
2023-01-31T04:22:12.841Z,10.55
2023-01-31T04:24:14.598Z,12.77
2023-01-31T04:26:16.259Z,15.38
2023-01-31T04:28:18.014Z,19.20
2023-01-31T04:30:19.722Z,11.43
2023-01-31T04:32:21.411Z,11.88
2023-01-31T04:34:23.123Z,12.05
2023-01-31T04:36:25.716Z,13.68
2023-01-31T04:38:27.365Z,11.80
2023-01-31T04:40:29.321Z,11.95
2023-01-31T04:42:31.181Z,18.48
2023-01-31T04:44:33.517Z,14.18
2023-01-31T04:46:35.269Z,13.73
2023-01-31T04:48:36.934Z,10.70
2023-01-31T04:50:38.671Z,12.10
2023-01-31T04:52:40.362Z,8.90
2023-01-31T04:54:42.529Z,12.30
2023-01-31T04:56:44.239Z,10.80
2023-01-31T04:58:45.949Z,14.40
2023-01-31T05:00:47.699Z,13.15
2023-01-31T05:02:50.498Z,10.93
2023-01-31T05:04:52.242Z,9.75
2023-01-31T05:06:54.474Z,13.05
2023-01-31T05:08:56.204Z,14.80
2023-01-31T05:11:01.049Z,12.30
2023-01-31T05:13:04.128Z,14.48
2023-01-31T05:15:07.952Z,17.35
2023-01-31T05:17:09.900Z,14.43
2023-01-31T05:19:11.867Z,24.10
2023-01-31T05:21:13.717Z,10.85
2023-01-31T05:23:15.425Z,13.75
2023-01-31T05:25:17.224Z,16.73
2023-01-31T05:27:19.431Z,15.05
2023-01-31T05:29:21.238Z,10.48
2023-01-31T05:31:23.247Z,12.50
2023-01-31T05:33:29.303Z,11.98
2023-01-31T05:35:32.317Z,12.23
2023-01-31T05:37:34.118Z,17.08
2023-01-31T05:39:36.612Z,10.55
2023-01-31T05:41:38.568Z,22.17
2023-01-31T05:43:51.103Z,11.52
2023-01-31T05:45:52.769Z,11.13
2023-01-31T05:47:55.119Z,11.82
2023-01-31T05:49:56.828Z,13.32
2023-01-31T05:51:58.516Z,14.40
2023-01-31T05:54:00.510Z,12.90
2023-01-31T05:56:02.625Z,12.77
2023-01-31T05:58:04.393Z,19.42
2023-01-31T06:00:06.826Z,13.38
2023-01-31T06:02:11.388Z,13.95
2023-01-31T06:04:13.110Z,13.20
2023-01-31T06:06:15.012Z,10.13
2023-01-31T06:08:17.903Z,14.48
2023-01-31T06:10:21.115Z,13.43
2023-01-31T06:12:34.394Z,10.48
2023-01-31T06:14:37.998Z,8.77
2023-01-31T06:16:41.662Z,9.95
2023-01-31T06:18:43.525Z,14.20
2023-01-31T06:20:45.357Z,9.25
2023-01-31T06:22:47.127Z,11.27
2023-01-31T06:24:48.997Z,10.57
2023-01-31T06:26:58.227Z,13.63
2023-01-31T06:29:00.162Z,12.55
2023-01-31T06:31:07.530Z,8.13
2023-01-31T06:33:09.950Z,15.93
2023-01-31T06:35:21.709Z,8.95
2023-01-31T06:37:23.770Z,12.97
2023-01-31T06:39:26.218Z,10.20
2023-01-31T06:41:28.109Z,8.48
2023-01-31T06:43:41.540Z,10.02
2023-01-31T06:45:47.286Z,13.97
2023-01-31T06:47:49.176Z,10.55
2023-01-31T06:49:51.467Z,15.77
2023-01-31T06:51:53.482Z,11.45
2023-01-31T06:53:56.845Z,11.82
2023-01-31T06:55:58.669Z,10.20
2023-01-31T06:58:09.870Z,7.85
2023-01-31T07:00:12.336Z,7.78
2023-01-31T07:02:14.230Z,13.63
2023-01-31T07:04:16.350Z,7.88
2023-01-31T07:06:32.565Z,12.88
2023-01-31T07:08:36.117Z,7.63
2023-01-31T07:10:38.299Z,8.95
2023-01-31T07:12:40.860Z,7.05
2023-01-31T07:14:42.921Z,10.40
2023-01-31T07:16:44.853Z,8.73
2023-01-31T07:18:46.902Z,8.60
2023-01-31T07:20:56.655Z,7.20
2023-01-31T07:22:59.480Z,7.00
2023-01-31T07:25:01.600Z,7.25
2023-01-31T07:27:03.368Z,7.07
2023-01-31T07:29:06.406Z,6.82
2023-01-31T07:31:12.239Z,8.10
2023-01-31T07:33:14.298Z,6.30
2023-01-31T07:35:20.606Z,9.80
2023-01-31T07:37:22.886Z,7.80
2023-01-31T07:39:25.026Z,9.52
2023-01-31T07:41:27.229Z,10.87
2023-01-31T07:43:41.547Z,7.57
2023-01-31T07:45:43.970Z,8.52
2023-01-31T07:47:46.051Z,9.30
2023-01-31T07:49:51.152Z,9.07
2023-01-31T07:52:07.985Z,9.20
2023-01-31T07:54:12.390Z,8.32
2023-01-31T07:56:16.348Z,7.78
2023-01-31T07:58:18.243Z,20.40
2023-01-31T08:00:47.449Z,8.68
2023-01-31T08:03:18.343Z,13.02
2023-01-31T08:05:20.745Z,10.90
2023-01-31T08:07:23.689Z,8.90
2023-01-31T08:09:26.976Z,10.90
2023-01-31T08:11:29.421Z,13.70
2023-01-31T08:13:39.882Z,13.35
2023-01-31T08:15:41.862Z,17.98
2023-01-31T08:17:43.819Z,11.40
2023-01-31T08:19:46.175Z,17.48
2023-01-31T08:21:48.283Z,20.15
2023-01-31T08:23:50.413Z,15.30
2023-01-31T08:25:52.258Z,8.32
2023-01-31T08:28:02.721Z,12.40
2023-01-31T08:30:05.606Z,15.88
2023-01-31T08:32:07.538Z,12.65
2023-01-31T08:34:09.658Z,17.15
2023-01-31T08:36:26.281Z,10.73
2023-01-31T08:38:29.200Z,14.93
2023-01-31T08:40:33.144Z,11.43
2023-01-31T08:42:35.030Z,11.60
2023-01-31T08:47:17.843Z,12.82
2023-01-31T08:49:19.902Z,13.93
2023-01-31T08:51:22.045Z,16.15
2023-01-31T08:53:23.992Z,11.43
2023-01-31T08:55:41.060Z,8.50
2023-01-31T08:57:57.869Z,8.38
2023-01-31T09:00:01.177Z,20.30
2023-01-31T09:02:03.394Z,7.70
2023-01-31T09:04:09.719Z,11.80
2023-01-31T09:06:31.153Z,11.88
2023-01-31T09:08:33.295Z,16.88
2023-01-31T09:10:34.980Z,9.75
2023-01-31T09:12:36.747Z,8.80
2023-01-31T09:14:38.480Z,19.00
2023-01-31T09:16:43.261Z,14.27
2023-01-31T09:18:45.449Z,24.83
2023-01-31T09:20:47.281Z,17.20
2023-01-31T09:22:48.964Z,10.60
2023-01-31T09:24:50.727Z,17.77
2023-01-31T09:26:54.380Z,12.05
2023-01-31T09:28:58.959Z,17.27
2023-01-31T09:31:09.694Z,17.45
2023-01-31T09:33:11.852Z,14.65
2023-01-31T09:35:14.684Z,21.10
2023-01-31T09:37:17.356Z,22.02
2023-01-31T09:39:19.288Z,12.38
2023-01-31T09:41:33.510Z,16.60
2023-01-31T09:43:46.371Z,14.27
2023-01-31T09:45:49.099Z,16.10
2023-01-31T09:47:53.163Z,16.40
2023-01-31T09:50:00.507Z,21.95
2023-01-31T09:52:06.900Z,12.77
2023-01-31T09:54:21.767Z,13.77
2023-01-31T09:56:43.650Z,21.80
2023-01-31T09:58:58.125Z,12.80
2023-01-31T10:01:26.397Z,15.82
2023-01-31T10:03:28.628Z,13.50
2023-01-31T10:05:57.565Z,16.52
2023-01-31T10:08:30.931Z,11.73
2023-01-31T10:10:43.741Z,11.30
2023-01-31T10:13:10.142Z,14.38
2023-01-31T10:15:21.490Z,16.50
2023-01-31T10:17:29.185Z,10.52
2023-01-31T10:19:51.462Z,17.52
2023-01-31T10:22:11.138Z,16.83
2023-01-31T10:24:24.910Z,13.20
2023-01-31T10:26:32.643Z,14.32
2023-01-31T10:28:52.008Z,17.45
2023-01-31T10:31:24.404Z,16.17
2023-01-31T10:33:35.756Z,10.70
2023-01-31T10:35:40.907Z,10.93
2023-01-31T10:38:11.525Z,17.50
2023-01-31T10:40:20.069Z,7.85
2023-01-31T10:42:25.249Z,6.75
2023-01-31T10:44:42.389Z,13.18
2023-01-31T10:46:44.179Z,8.23
2023-01-31T10:48:48.363Z,9.77
2023-01-31T10:51:14.877Z,15.18
2023-01-31T10:53:42.076Z,10.75
2023-01-31T10:55:50.067Z,14.07
2023-01-31T10:57:52.212Z,8.38
2023-01-31T10:59:54.714Z,18.88
2023-01-31T11:01:56.733Z,14.93
2023-01-31T11:04:00.675Z,12.02
2023-01-31T11:06:03.002Z,11.15
2023-01-31T11:08:42.885Z,12.85
2023-01-31T11:10:52.766Z,12.05
2023-01-31T11:13:04.711Z,9.63
2023-01-31T11:15:19.357Z,14.27
2023-01-31T11:17:22.700Z,10.55
2023-01-31T11:19:46.365Z,7.28
2023-01-31T11:21:53.217Z,9.10
2023-01-31T11:24:03.989Z,10.52
2023-01-31T11:26:06.471Z,11.52
2023-01-31T11:28:21.965Z,9.02
2023-01-31T11:30:33.016Z,9.20
2023-01-31T11:32:37.269Z,10.52
2023-01-31T11:34:39.651Z,11.32
2023-01-31T11:36:44.144Z,8.05
2023-01-31T11:38:46.498Z,11.13
2023-01-31T11:40:49.064Z,10.77
2023-01-31T11:42:55.892Z,7.70
2023-01-31T11:45:04.370Z,14.70
2023-01-31T11:47:12.405Z,9.98
2023-01-31T11:49:32.229Z,8.90
2023-01-31T11:51:34.280Z,11.52
2023-01-31T11:53:45.167Z,10.70
2023-01-31T11:55:49.205Z,11.85
2023-01-31T11:58:00.271Z,9.65
2023-01-31T12:00:05.989Z,7.03
2023-01-31T12:02:34.016Z,13.00
2023-01-31T12:04:41.665Z,22.58
2023-01-31T12:06:59.477Z,8.68
2023-01-31T12:09:03.765Z,7.47
2023-01-31T12:11:22.201Z,15.82
2023-01-31T12:13:24.766Z,12.45
2023-01-31T12:15:32.077Z,9.38
2023-01-31T12:17:37.942Z,12.90
2023-01-31T12:19:55.079Z,8.23
2023-01-31T12:22:26.782Z,9.25
2023-01-31T12:25:19.967Z,6.78
2023-01-31T12:27:31.764Z,8.40
2023-01-31T12:29:34.436Z,12.07
2023-01-31T12:31:59.241Z,9.65
2023-01-31T12:34:18.476Z,5.65
2023-01-31T12:36:38.664Z,8.05
2023-01-31T12:39:02.596Z,6.28
2023-01-31T12:41:18.732Z,7.38
2023-01-31T12:43:44.427Z,7.72
2023-01-31T12:46:07.668Z,6.88
2023-01-31T12:48:34.991Z,6.88
2023-01-31T12:50:55.359Z,5.95
2023-01-31T12:53:29.957Z,5.93
2023-01-31T12:55:49.620Z,13.50
2023-01-31T12:57:51.394Z,5.85
2023-01-31T13:00:20.588Z,10.20
2023-01-31T13:02:44.605Z,9.73
2023-01-31T13:04:53.192Z,8.80
2023-01-31T13:07:00.683Z,6.07
2023-01-31T13:09:13.695Z,7.28
2023-01-31T13:11:20.149Z,6.38
2023-01-31T13:13:28.309Z,9.43
2023-01-31T13:15:39.088Z,8.98
2023-01-31T13:17:41.465Z,15.32
2023-01-31T13:19:52.428Z,9.52
2023-01-31T13:21:59.184Z,7.05
2023-01-31T13:24:10.590Z,7.75
2023-01-31T13:26:21.146Z,6.38
2023-01-31T13:28:29.049Z,12.23
2023-01-31T13:30:30.725Z,5.88
2023-01-31T13:32:43.311Z,8.32
2023-01-31T13:34:52.766Z,10.30
2023-01-31T13:36:59.933Z,6.80
2023-01-31T13:39:08.051Z,9.00
2023-01-31T13:41:26.768Z,6.32
2023-01-31T13:43:28.502Z,9.82
2023-01-31T13:45:43.386Z,14.13
2023-01-31T13:47:48.782Z,9.82
2023-01-31T13:50:17.891Z,5.88
2023-01-31T13:52:19.511Z,5.35
2023-01-31T13:54:25.722Z,8.90
2023-01-31T13:56:30.701Z,7.78
2023-01-31T13:58:35.319Z,7.07
2023-01-31T14:00:56.132Z,7.60
2023-01-31T14:03:15.721Z,5.55
2023-01-31T14:05:45.664Z,5.90
2023-01-31T14:08:27.480Z,6.18
2023-01-31T14:10:37.388Z,8.38
2023-01-31T14:12:40.432Z,10.00
2023-01-31T14:14:56.804Z,7.72
2023-01-31T14:16:58.572Z,11.23
2023-01-31T14:19:00.457Z,11.32
2023-01-31T14:21:30.268Z,6.10
2023-01-31T14:23:47.147Z,8.18
2023-01-31T14:25:48.903Z,8.02
2023-01-31T14:27:56.589Z,9.52
2023-01-31T14:30:04.850Z,10.65
2023-01-31T14:32:14.402Z,7.40
2023-01-31T14:34:27.025Z,14.50
2023-01-31T14:36:31.247Z,8.43
2023-01-31T14:38:44.954Z,8.88
2023-01-31T14:41:05.170Z,7.22
2023-01-31T14:43:25.411Z,9.90
2023-01-31T14:45:48.609Z,5.43
2023-01-31T14:48:21.325Z,6.70
2023-01-31T14:50:42.905Z,7.35
2023-01-31T14:53:06.696Z,8.98
2023-01-31T14:55:23.875Z,5.90
2023-01-31T14:57:28.618Z,10.43
2023-01-31T14:59:33.967Z,8.07
2023-01-31T15:01:38.344Z,6.78
2023-01-31T15:03:50.809Z,6.07
2023-01-31T15:06:15.913Z,6.90
2023-01-31T15:08:19.724Z,6.82
2023-01-31T15:10:55.604Z,7.15
2023-01-31T15:13:01.739Z,7.72
2023-01-31T15:15:05.625Z,6.45
2023-01-31T15:17:32.068Z,8.38
2023-01-31T15:19:45.218Z,7.57
2023-01-31T15:21:50.746Z,12.02
2023-01-31T15:23:53.461Z,9.95
2023-01-31T15:25:56.610Z,16.48
2023-01-31T15:27:59.900Z,9.90
2023-01-31T15:30:09.441Z,11.68
2023-01-31T15:32:22.519Z,13.20
2023-01-31T15:34:30.031Z,8.85
2023-01-31T15:36:39.157Z,7.45
2023-01-31T15:38:57.117Z,7.35
2023-01-31T15:41:17.117Z,9.45
2023-01-31T15:43:24.039Z,6.18
2023-01-31T15:45:28.758Z,7.15
2023-01-31T15:47:32.582Z,11.20
2023-01-31T15:49:44.355Z,6.97
2023-01-31T15:51:46.117Z,12.43
2023-01-31T15:53:48.913Z,10.10
2023-01-31T15:55:52.253Z,5.10
2023-01-31T15:57:58.895Z,8.88
2023-01-31T16:00:00.744Z,4.88
2023-01-31T16:02:04.909Z,4.95
2023-01-31T16:04:06.718Z,6.65
2023-01-31T16:06:22.060Z,11.88
2023-01-31T16:08:34.028Z,11.85
2023-01-31T16:10:35.878Z,5.13
2023-01-31T16:12:43.909Z,10.52
2023-01-31T16:14:48.171Z,5.72
2023-01-31T16:16:52.218Z,8.30
2023-01-31T16:18:56.000Z,6.00
2023-01-31T16:20:58.025Z,5.68
2023-01-31T16:22:59.837Z,6.82
2023-01-31T16:25:03.592Z,5.90
2023-01-31T16:27:14.201Z,13.68
2023-01-31T16:29:18.572Z,4.95
2023-01-31T16:31:21.833Z,10.93
2023-01-31T16:33:24.390Z,21.88
2023-01-31T16:35:27.502Z,6.28
2023-01-31T16:37:39.696Z,5.80
2023-01-31T16:39:47.126Z,6.68
2023-01-31T16:41:57.315Z,6.32
2023-01-31T16:44:01.484Z,9.48
2023-01-31T16:46:06.742Z,6.35
2023-01-31T16:48:29.212Z,7.57
2023-01-31T16:50:42.893Z,4.53
2023-01-31T16:52:50.717Z,5.32
2023-01-31T16:54:54.159Z,5.68
2023-01-31T16:57:02.020Z,4.65
2023-01-31T16:59:03.845Z,8.30
2023-01-31T17:01:17.150Z,11.25
2023-01-31T17:03:19.981Z,4.70
2023-01-31T17:05:37.745Z,4.68
2023-01-31T17:07:43.661Z,5.60
2023-01-31T17:09:47.110Z,4.80
2023-01-31T17:11:48.902Z,5.68
2023-01-31T17:13:50.665Z,4.47
2023-01-31T17:15:52.725Z,14.18
2023-01-31T17:17:54.496Z,5.65
2023-01-31T17:19:56.298Z,5.82
2023-01-31T17:21:59.317Z,6.43
2023-01-31T17:24:01.860Z,12.75
2023-01-31T17:26:03.783Z,9.40
2023-01-31T17:28:06.257Z,9.38
2023-01-31T17:30:08.792Z,7.30
2023-01-31T17:32:12.511Z,7.57
2023-01-31T17:34:15.447Z,14.32
2023-01-31T17:36:17.645Z,7.20
2023-01-31T17:38:19.464Z,6.38
2023-01-31T17:40:21.370Z,6.07
2023-01-31T17:42:23.585Z,6.45
2023-01-31T17:44:28.500Z,5.90
2023-01-31T17:46:31.553Z,5.88
2023-01-31T17:48:33.489Z,6.47
2023-01-31T17:50:35.306Z,5.00
2023-01-31T17:52:37.334Z,4.93
2023-01-31T17:54:39.104Z,4.55
2023-01-31T17:56:40.982Z,5.63
2023-01-31T17:58:42.709Z,4.93
2023-01-31T18:00:46.897Z,7.88
2023-01-31T18:02:48.720Z,5.10
2023-01-31T18:04:50.514Z,4.30
2023-01-31T18:06:52.377Z,6.65
2023-01-31T18:08:54.121Z,4.25
2023-01-31T18:10:55.925Z,15.55
2023-01-31T18:12:57.675Z,3.90
2023-01-31T18:15:00.239Z,4.25
2023-01-31T18:17:01.999Z,5.53
2023-01-31T18:19:03.706Z,4.93
2023-01-31T18:21:09.406Z,6.00
2023-01-31T18:23:11.140Z,9.60
2023-01-31T18:25:13.120Z,3.78
2023-01-31T18:27:14.980Z,3.25
2023-01-31T18:29:20.000Z,3.20
2023-01-31T18:31:22.121Z,4.43
2023-01-31T18:33:24.160Z,9.82
2023-01-31T18:35:25.942Z,5.53
2023-01-31T18:37:27.737Z,3.25
2023-01-31T18:39:29.517Z,3.17
2023-01-31T18:41:31.603Z,2.85
2023-01-31T18:43:33.344Z,8.23
2023-01-31T18:45:37.774Z,8.52
2023-01-31T18:47:39.525Z,4.28
2023-01-31T18:49:41.512Z,6.45
2023-01-31T18:51:43.590Z,3.30
2023-01-31T18:53:46.695Z,4.30
2023-01-31T18:55:48.443Z,4.68
2023-01-31T18:57:50.178Z,4.13
2023-01-31T18:59:52.001Z,4.18
2023-01-31T19:01:53.816Z,3.90
2023-01-31T19:03:58.209Z,2.83
2023-01-31T19:06:07.696Z,4.63
2023-01-31T19:08:09.360Z,4.30
2023-01-31T19:10:11.594Z,4.32
2023-01-31T19:12:13.489Z,4.20
2023-01-31T19:14:18.180Z,8.63
2023-01-31T19:16:22.262Z,3.13
2023-01-31T19:18:24.091Z,4.60
2023-01-31T19:20:25.861Z,3.63
2023-01-31T19:22:28.594Z,2.60
2023-01-31T19:24:30.365Z,5.20
2023-01-31T19:26:33.070Z,3.28
2023-01-31T19:28:39.460Z,3.50
2023-01-31T19:30:41.257Z,5.88
2023-01-31T19:32:43.043Z,3.55
2023-01-31T19:34:44.856Z,3.90
2023-01-31T19:36:46.836Z,3.05
2023-01-31T19:38:48.819Z,3.10
2023-01-31T19:40:51.925Z,3.08
2023-01-31T19:42:53.687Z,4.80
2023-01-31T19:44:55.518Z,3.00
2023-01-31T19:46:57.297Z,2.70
2023-01-31T19:48:59.822Z,2.72
2023-01-31T19:51:07.849Z,3.85
2023-01-31T19:53:09.589Z,3.35
2023-01-31T19:55:11.389Z,6.85
2023-01-31T19:57:13.078Z,4.05
2023-01-31T19:59:14.839Z,4.63
2023-01-31T20:01:17.043Z,3.70
2023-01-31T20:03:18.748Z,2.42
2023-01-31T20:05:20.668Z,2.22
2023-01-31T20:07:22.563Z,2.28
2023-01-31T20:09:24.221Z,3.63
2023-01-31T20:11:27.864Z,3.28
2023-01-31T20:13:29.652Z,1.77
2023-01-31T20:15:31.827Z,4.47
2023-01-31T20:17:34.244Z,3.80
2023-01-31T20:19:35.981Z,2.90
2023-01-31T20:21:39.173Z,2.53
2023-01-31T20:23:41.000Z,6.82
2023-01-31T20:25:42.747Z,2.50
2023-01-31T20:27:44.493Z,3.13
2023-01-31T20:29:46.250Z,2.85
2023-01-31T20:31:49.521Z,2.47
2023-01-31T20:33:52.391Z,5.78
2023-01-31T20:35:54.126Z,1.73
2023-01-31T20:37:55.877Z,1.77
2023-01-31T20:39:57.618Z,1.35
2023-01-31T20:41:59.393Z,2.00
2023-01-31T20:44:01.147Z,1.85
2023-01-31T20:46:05.233Z,1.73
2023-01-31T20:48:08.135Z,6.32
2023-01-31T20:50:10.679Z,2.35
2023-01-31T20:52:12.525Z,2.00
2023-01-31T20:54:14.302Z,1.83
2023-01-31T20:56:16.158Z,2.97
2023-01-31T20:58:17.968Z,6.13
2023-01-31T21:00:21.397Z,2.20
2023-01-31T21:02:23.360Z,2.60
2023-01-31T21:04:25.227Z,3.17
2023-01-31T21:06:27.538Z,1.98
2023-01-31T21:08:29.963Z,2.75
2023-01-31T21:10:31.960Z,2.75
2023-01-31T21:12:33.811Z,6.00
2023-01-31T21:14:35.584Z,2.78
2023-01-31T21:16:37.436Z,6.03
2023-01-31T21:18:40.399Z,3.08
2023-01-31T21:20:42.216Z,4.70
2023-01-31T21:22:43.968Z,2.10
2023-01-31T21:24:45.800Z,2.78
2023-01-31T21:26:47.549Z,2.53
2023-01-31T21:28:49.605Z,2.13
2023-01-31T21:31:01.735Z,2.72
2023-01-31T21:33:04.027Z,3.85
2023-01-31T21:35:06.174Z,2.40
2023-01-31T21:37:07.964Z,2.95
2023-01-31T21:39:12.307Z,2.05
2023-01-31T21:41:33.130Z,3.58
2023-01-31T21:43:38.515Z,2.10
2023-01-31T21:45:40.393Z,5.63
2023-01-31T21:48:00.619Z,2.72
2023-01-31T21:50:02.348Z,5.20
2023-01-31T21:52:04.329Z,2.40
2023-01-31T21:54:06.124Z,2.80
2023-01-31T21:56:10.687Z,2.70
2023-01-31T21:58:12.481Z,2.72
2023-01-31T22:00:14.541Z,3.10
2023-01-31T22:02:16.315Z,2.53
2023-01-31T22:04:23.482Z,2.88
2023-01-31T22:06:31.501Z,3.67
2023-01-31T22:08:34.290Z,6.70
2023-01-31T22:10:36.076Z,3.50
2023-01-31T22:12:37.777Z,3.20
2023-01-31T22:14:39.498Z,3.65
2023-01-31T22:16:41.807Z,2.55
2023-01-31T22:18:44.704Z,3.03
2023-01-31T22:20:46.532Z,2.95
2023-01-31T22:22:48.781Z,3.72
2023-01-31T22:24:50.653Z,3.08
2023-01-31T22:26:52.460Z,2.60
2023-01-31T22:28:56.263Z,4.07
2023-01-31T22:30:59.090Z,9.05
2023-01-31T22:33:00.882Z,3.00
2023-01-31T22:35:02.632Z,3.47
2023-01-31T22:37:04.435Z,2.03
2023-01-31T22:39:06.497Z,2.53
2023-01-31T22:41:10.880Z,2.63
2023-01-31T22:43:15.489Z,2.40
2023-01-31T22:45:17.405Z,2.67
2023-01-31T22:47:19.252Z,2.65
2023-01-31T22:49:21.046Z,2.55
2023-01-31T22:51:25.904Z,4.65
2023-01-31T22:53:29.735Z,3.67
2023-01-31T22:55:31.536Z,3.95
2023-01-31T22:57:33.346Z,3.78
2023-01-31T22:59:35.085Z,6.03
2023-01-31T23:01:38.229Z,5.85
2023-01-31T23:03:40.113Z,4.55
2023-01-31T23:05:45.901Z,4.00
2023-01-31T23:07:47.625Z,2.33
2023-01-31T23:09:49.458Z,3.17
2023-01-31T23:11:51.297Z,3.13
2023-01-31T23:13:53.075Z,3.13
2023-01-31T23:15:54.991Z,3.05
2023-01-31T23:17:56.819Z,3.47
2023-01-31T23:19:58.552Z,2.65
2023-01-31T23:22:00.362Z,2.60
2023-01-31T23:24:02.082Z,3.00
2023-01-31T23:26:05.144Z,2.63
2023-01-31T23:28:07.010Z,6.47
2023-01-31T23:30:11.682Z,5.80
2023-01-31T23:32:13.487Z,2.88
2023-01-31T23:34:15.293Z,3.63
2023-01-31T23:36:16.980Z,3.85
2023-01-31T23:38:18.780Z,3.47
2023-01-31T23:40:21.428Z,2.90
2023-01-31T23:42:24.024Z,3.75
2023-01-31T23:44:25.820Z,3.50
2023-01-31T23:46:27.715Z,2.53
2023-01-31T23:48:29.635Z,2.85
2023-01-31T23:50:31.358Z,2.70
2023-01-31T23:52:33.095Z,3.40
2023-01-31T23:54:35.547Z,3.95
2023-01-31T23:56:37.375Z,2.72
2023-01-31T23:58:39.085Z,2.80
